Time;durP1;ratioP1;P1;durP2;ratioP2;P2;SDS_P1;SDS_P2;PMS_P1;PMS_P2;Temp;Humidity;BMP_temperature;BMP_pressure;BME280_temperature;BME280_humidity;BME280_pressure;Samples;Min_cycle;Max_cycle;Signal;HPM_P1;HPM_P2
2023/04/17 00:02:09;;;;;;;15.53;14.13;;;;;;;-142.25;100.00;58004.16;4911418;29;20491;-69
2023/04/17 00:04:39;;;;;;;20.17;18.33;;;;;;;-142.25;100.00;58004.16;4912017;29;20407;-69
2023/04/17 00:07:06;;;;;;;14.03;12.70;;;;;;;-142.25;100.00;58004.16;4911865;29;20735;-70
2023/04/17 00:09:32;;;;;;;17.27;15.77;;;;;;;-142.25;100.00;58004.16;4913788;29;20332;-69
2023/04/17 00:11:58;;;;;;;16.37;14.83;;;;;;;-142.25;100.00;58004.16;4911488;29;20324;-70
2023/04/17 00:14:24;;;;;;;16.00;14.57;;;;;;;-142.25;100.00;58004.16;4911865;29;20650;-70
2023/04/17 00:16:51;;;;;;;15.73;14.33;;;;;;;-142.25;100.00;58004.16;4911155;29;20308;-69
2023/04/17 00:19:16;;;;;;;18.23;16.53;;;;;;;-142.25;100.00;58004.16;4912882;29;20039;-70
2023/04/17 00:21:42;;;;;;;15.17;13.80;;;;;;;-142.25;100.00;58004.16;4911151;29;20335;-69
2023/04/17 00:24:07;;;;;;;18.20;16.57;;;;;;;-142.25;100.00;58004.16;4910922;29;20428;-69
2023/04/17 00:26:33;;;;;;;14.73;13.43;;;;;;;-142.25;100.00;58004.16;4911531;29;20501;-69
2023/04/17 00:29:00;;;;;;;17.27;15.80;;;;;;;-142.25;100.00;58004.16;4913204;29;20330;-69
2023/04/17 00:31:26;;;;;;;15.57;14.20;;;;;;;-142.25;100.00;58004.16;4911404;29;20051;-70
2023/04/17 00:33:52;;;;;;;17.63;15.90;;;;;;;-142.25;100.00;58004.16;4911124;29;20595;-68
2023/04/17 00:36:17;;;;;;;17.33;15.83;;;;;;;-142.25;100.00;58004.16;4912164;29;20280;-70
2023/04/17 00:38:43;;;;;;;15.73;14.37;;;;;;;-142.25;100.00;58004.16;4910559;29;20051;-69
2023/04/17 00:41:09;;;;;;;15.53;14.13;;;;;;;-142.25;100.00;58004.16;4910605;29;20822;-68
2023/04/17 00:43:35;;;;;;;17.17;15.73;;;;;;;-142.25;100.00;58004.16;4912311;29;20796;-69
2023/04/17 00:46:02;;;;;;;16.33;14.93;;;;;;;-142.25;100.00;58004.16;4928875;29;20306;-70
2023/04/17 00:48:28;;;;;;;17.97;16.40;;;;;;;-142.25;100.00;58004.16;4911239;29;20054;-70
2023/04/17 00:51:00;;;;;;;18.53;16.87;;;;;;;-142.25;100.00;58004.16;4910628;29;20756;-69
2023/04/17 00:53:28;;;;;;;19.00;17.43;;;;;;;-142.25;100.00;58004.16;4910901;29;20287;-69
2023/04/17 00:55:55;;;;;;;23.53;21.67;;;;;;;-142.25;100.00;58004.16;4925720;29;20851;-69
2023/04/17 00:58:20;;;;;;;20.43;18.77;;;;;;;-142.25;100.00;58004.16;4909060;29;20315;-69
2023/04/17 01:00:49;;;;;;;16.33;14.83;;;;;;;-142.25;100.00;58004.16;4912869;28;21029;-69
2023/04/17 01:03:15;;;;;;;18.93;17.17;;;;;;;-142.25;100.00;58004.16;4911332;28;20469;-69
2023/04/17 01:05:43;;;;;;;17.53;16.03;;;;;;;-142.25;100.00;58004.16;4909992;29;20412;-72
2023/04/17 01:08:09;;;;;;;15.63;14.23;;;;;;;-142.25;100.00;58004.16;4910577;29;20651;-68
2023/04/17 01:10:35;;;;;;;17.93;16.27;;;;;;;-142.25;100.00;58004.16;4910511;29;20292;-69
2023/04/17 01:13:06;;;;;;;16.30;14.80;;;;;;;-142.25;100.00;58004.16;4910334;29;20303;-69
2023/04/17 01:15:34;;;;;;;16.47;15.10;;;;;;;-142.25;100.00;58004.16;4914693;29;20123;-69
2023/04/17 01:18:00;;;;;;;22.63;18.23;;;;;;;-142.25;100.00;58004.16;4926742;29;20331;-69
2023/04/17 01:20:29;;;;;;;14.90;13.63;;;;;;;-142.25;100.00;58004.16;4913555;29;20288;-70
2023/04/17 01:22:59;;;;;;;16.67;15.23;;;;;;;-142.25;100.00;58004.16;4910674;29;20315;-70
2023/04/17 01:25:26;;;;;;;18.33;16.80;;;;;;;-142.25;100.00;58004.16;4911253;28;20287;-70
2023/04/17 01:27:52;;;;;;;18.17;16.60;;;;;;;-142.25;100.00;58004.16;4925318;29;20303;-70
2023/04/17 01:30:19;;;;;;;25.83;23.80;;;;;;;-142.25;100.00;58004.16;4925700;29;20323;-70
2023/04/17 01:32:59;;;;;;;21.40;19.57;;;;;;;-142.25;100.00;58004.16;4916557;29;20296;-69
2023/04/17 01:35:25;;;;;;;17.33;15.80;;;;;;;-142.25;100.00;58004.16;4923137;28;20284;-70
2023/04/17 01:37:51;;;;;;;15.33;13.83;;;;;;;-142.25;100.00;58004.16;4925583;29;20306;-70
2023/04/17 01:40:17;;;;;;;16.03;14.53;;;;;;;-142.25;100.00;58004.16;4925197;29;20039;-70
2023/04/17 01:42:43;;;;;;;17.80;16.00;;;;;;;-142.25;100.00;58004.16;4912208;29;20230;-70
2023/04/17 01:45:09;;;;;;;17.53;15.93;;;;;;;-142.25;100.00;58004.16;4929207;28;20658;-70
2023/04/17 01:47:35;;;;;;;15.10;13.73;;;;;;;-142.25;100.00;58004.16;4914306;29;20043;-69
2023/04/17 01:50:01;;;;;;;16.77;15.20;;;;;;;-142.25;100.00;58004.16;4914450;29;20411;-69
2023/04/17 01:52:26;;;;;;;16.77;15.27;;;;;;;-142.25;100.00;58004.16;4915981;29;20048;-67
2023/04/17 01:54:55;;;;;;;19.50;17.87;;;;;;;-142.25;100.00;58004.16;4912828;29;20051;-69
2023/04/17 01:57:20;;;;;;;22.30;20.57;;;;;;;-142.25;100.00;58004.16;4912259;29;20403;-71
2023/04/17 01:59:46;;;;;;;21.53;19.83;;;;;;;-142.25;100.00;58004.16;4928183;29;20295;-69
2023/04/17 02:02:12;;;;;;;18.53;16.27;;;;;;;-142.25;100.00;58004.16;4927544;28;20048;-69
2023/04/17 02:04:38;;;;;;;22.77;20.93;;;;;;;-142.25;100.00;58004.16;4912296;29;20363;-68
2023/04/17 02:07:12;;;;;;;21.30;19.63;;;;;;;-142.25;100.00;58004.16;4904336;29;20059;-69
2023/04/17 02:09:37;;;;;;;20.63;18.97;;;;;;;-142.25;100.00;58004.16;4912716;29;20805;-69
2023/04/17 02:12:06;;;;;;;21.10;19.40;;;;;;;-142.25;100.00;58004.16;4927264;28;20083;-69
2023/04/17 02:14:32;;;;;;;15.63;14.23;;;;;;;-142.25;100.00;58004.16;4913717;29;20319;-69
2023/04/17 02:16:57;;;;;;;18.63;17.07;;;;;;;-142.25;100.00;58004.16;4917468;29;20040;-69
2023/04/17 02:19:23;;;;;;;19.27;17.60;;;;;;;-142.25;100.00;58004.16;4917277;29;20525;-69
2023/04/17 02:21:49;;;;;;;20.93;19.17;;;;;;;-142.25;100.00;58004.16;4911868;29;20361;-70
2023/04/17 02:24:14;;;;;;;18.07;16.53;;;;;;;-142.25;100.00;58004.16;4910145;29;20348;-69
2023/04/17 02:26:40;;;;;;;16.40;14.90;;;;;;;-142.25;100.00;58004.16;4912812;29;20469;-68
2023/04/17 02:29:06;;;;;;;17.07;15.57;;;;;;;-142.25;100.00;58004.16;4913281;29;20087;-69
2023/04/17 02:31:32;;;;;;;17.20;15.70;;;;;;;-142.25;100.00;58004.16;4927656;29;20047;-69
2023/04/17 02:33:57;;;;;;;16.63;15.20;;;;;;;-142.25;100.00;58004.16;4925819;28;20047;-69
2023/04/17 02:36:23;;;;;;;18.20;16.53;;;;;;;-142.25;100.00;58004.16;4912156;29;20133;-69
2023/04/17 02:38:50;;;;;;;18.63;16.97;;;;;;;-142.25;100.00;58004.16;4927870;29;20138;-69
2023/04/17 02:41:16;;;;;;;18.53;16.87;;;;;;;-142.25;100.00;58004.16;4915801;29;20798;-69
2023/04/17 02:43:42;;;;;;;16.87;15.43;;;;;;;-142.25;100.00;58004.16;4918017;29;20048;-69
2023/04/17 02:46:09;;;;;;;18.40;16.73;;;;;;;-142.25;100.00;58004.16;4914300;29;20402;-68
2023/04/17 02:48:34;;;;;;;19.93;18.00;;;;;;;-142.25;100.00;58004.16;4921254;29;20541;-69
2023/04/17 02:51:00;;;;;;;20.03;18.03;;;;;;;-142.25;100.00;58004.16;4896749;29;20303;-68
2023/04/17 02:53:27;;;;;;;23.03;21.27;;;;;;;-142.25;100.00;58004.16;4926605;29;20052;-69
2023/04/17 02:55:53;;;;;;;17.83;16.17;;;;;;;-142.25;100.00;58004.16;4913027;29;20299;-68
2023/04/17 02:58:21;;;;;;;18.97;17.43;;;;;;;-142.25;100.00;58004.16;4921170;29;20067;-68
2023/04/17 03:00:47;;;;;;;16.90;15.30;;;;;;;-142.25;100.00;58004.16;4913188;29;20304;-68
2023/04/17 03:03:17;;;;;;;19.53;17.57;;;;;;;-142.25;100.00;58004.16;4926378;28;20048;-68
2023/04/17 03:05:42;;;;;;;14.17;12.83;;;;;;;-142.25;100.00;58004.16;4926432;28;20346;-68
2023/04/17 03:08:08;;;;;;;17.93;16.43;;;;;;;-142.25;100.00;58004.16;4925936;28;20082;-68
2023/04/17 03:10:42;;;;;;;15.20;13.87;;;;;;;-142.25;100.00;58004.16;4927888;29;20622;-68
2023/04/17 03:13:07;;;;;;;18.37;16.87;;;;;;;-142.25;100.00;58004.16;4927068;29;20775;-68
2023/04/17 03:15:35;;;;;;;18.57;17.03;;;;;;;-142.25;100.00;58004.16;4926418;29;20053;-68
2023/04/17 03:18:00;;;;;;;15.87;14.53;;;;;;;-142.25;100.00;58004.16;4927425;29;20054;-69
2023/04/17 03:20:26;;;;;;;19.23;17.57;;;;;;;-142.25;100.00;58004.16;4926756;29;20292;-69
2023/04/17 03:22:53;;;;;;;14.60;13.20;;;;;;;-142.25;100.00;58004.16;4913928;29;20645;-67
2023/04/17 03:25:19;;;;;;;14.67;13.37;;;;;;;-142.25;100.00;58004.16;4912993;29;20298;-69
2023/04/17 03:27:51;;;;;;;17.17;15.40;;;;;;;-142.25;100.00;58004.16;4927173;29;20306;-69
2023/04/17 03:30:19;;;;;;;15.87;14.47;;;;;;;-142.25;100.00;58004.16;4927265;29;20739;-69
2023/04/17 03:32:47;;;;;;;19.53;17.83;;;;;;;-142.25;100.00;58004.16;4901279;29;20303;-69
2023/04/17 03:35:13;;;;;;;16.67;15.20;;;;;;;-142.25;100.00;58004.16;4913442;29;20276;-69
2023/04/17 03:37:40;;;;;;;16.27;14.83;;;;;;;-142.25;100.00;58004.16;4913064;29;20066;-69
2023/04/17 03:40:06;;;;;;;17.87;16.40;;;;;;;-142.25;100.00;58004.16;4914164;29;20292;-69
2023/04/17 03:42:32;;;;;;;15.20;13.73;;;;;;;-142.25;100.00;58004.16;4912587;29;20056;-69
2023/04/17 03:44:57;;;;;;;17.90;16.27;;;;;;;-142.25;100.00;58004.16;4921305;28;20710;-69
2023/04/17 03:47:24;;;;;;;17.70;15.83;;;;;;;-142.25;100.00;58004.16;4912454;29;20044;-68
2023/04/17 03:49:50;;;;;;;17.07;15.57;;;;;;;-142.25;100.00;58004.16;4913061;29;20295;-69
2023/04/17 03:52:16;;;;;;;17.63;16.00;;;;;;;-142.25;100.00;58004.16;4910725;29;20258;-69
2023/04/17 03:54:43;;;;;;;16.63;15.20;;;;;;;-142.25;100.00;58004.16;4926104;29;20752;-68
2023/04/17 03:57:11;;;;;;;28.03;18.43;;;;;;;-142.25;100.00;58004.16;4927245;28;20700;-69
2023/04/17 03:59:38;;;;;;;18.27;16.87;;;;;;;-142.25;100.00;58004.16;4896232;29;20308;-69
2023/04/17 04:02:04;;;;;;;20.53;18.97;;;;;;;-142.25;100.00;58004.16;4912191;29;20679;-69
2023/04/17 04:04:32;;;;;;;18.37;16.83;;;;;;;-142.25;100.00;58004.16;4909074;29;20404;-68
2023/04/17 04:07:05;;;;;;;23.30;21.53;;;;;;;-142.25;100.00;58004.16;4926121;29;20308;-67
2023/04/17 04:09:31;;;;;;;17.13;15.57;;;;;;;-142.25;100.00;58004.16;4926414;29;20422;-68
2023/04/17 04:11:59;;;;;;;19.23;17.63;;;;;;;-142.25;100.00;58004.16;4909758;29;20471;-67
2023/04/17 04:14:26;;;;;;;16.83;15.33;;;;;;;-142.25;100.00;58004.16;4910813;29;20884;-68
2023/04/17 04:16:52;;;;;;;18.50;16.83;;;;;;;-142.25;100.00;58004.16;4911606;29;20375;-69
2023/04/17 04:19:18;;;;;;;18.77;17.17;;;;;;;-142.25;100.00;58004.16;4927730;28;20475;-67
2023/04/17 04:21:44;;;;;;;19.50;17.83;;;;;;;-142.25;100.00;58004.16;4912751;29;20305;-69
2023/04/17 04:24:13;;;;;;;17.73;16.13;;;;;;;-142.25;100.00;58004.16;4910929;29;20047;-67
2023/04/17 04:26:41;;;;;;;17.73;16.23;;;;;;;-142.25;100.00;58004.16;4925143;29;20896;-69
2023/04/17 04:29:08;;;;;;;16.53;15.10;;;;;;;-142.25;100.00;58004.16;4918726;29;20299;-68
2023/04/17 04:31:49;;;;;;;17.77;16.13;;;;;;;-142.25;100.00;58004.16;4914679;29;20414;-68
2023/04/17 04:34:18;;;;;;;17.40;15.93;;;;;;;-142.25;100.00;58004.16;4897249;29;20944;-70
2023/04/17 04:36:49;;;;;;;18.50;16.83;;;;;;;-142.25;100.00;58004.16;4926766;29;20369;-68
2023/04/17 04:39:36;;;;;;;16.03;14.40;;;;;;;-142.25;100.00;58004.16;4910584;29;20364;-69
2023/04/17 04:42:04;;;;;;;25.57;23.60;;;;;;;-142.25;100.00;58004.16;4918789;28;20738;-69
2023/04/17 04:44:33;;;;;;;19.93;18.23;;;;;;;-142.25;100.00;58004.16;4919195;29;20346;-69
2023/04/17 04:46:59;;;;;;;16.60;15.20;;;;;;;-142.25;100.00;58004.16;4916968;29;20391;-63
2023/04/17 04:49:25;;;;;;;18.20;16.47;;;;;;;-142.25;100.00;58004.16;4920443;29;20039;-70
2023/04/17 04:51:50;;;;;;;20.03;18.30;;;;;;;-142.25;100.00;58004.16;4919583;29;20303;-69
2023/04/17 04:54:16;;;;;;;17.73;16.23;;;;;;;-142.25;100.00;58004.16;4910110;29;20048;-69
2023/04/17 04:56:50;;;;;;;20.67;18.97;;;;;;;-142.25;100.00;58004.16;4921127;29;20135;-70
2023/04/17 04:59:16;;;;;;;22.37;20.37;;;;;;;-142.25;100.00;58004.16;4911611;29;20291;-68
2023/04/17 05:01:48;;;;;;;18.27;16.83;;;;;;;-142.25;100.00;58004.16;4907971;29;20048;-69
2023/04/17 05:04:16;;;;;;;19.83;18.10;;;;;;;-142.25;100.00;58004.16;4909366;29;20379;-72
2023/04/17 05:06:41;;;;;;;21.93;20.13;;;;;;;-142.25;100.00;58004.16;4909569;29;20695;-73
2023/04/17 05:09:07;;;;;;;18.53;16.90;;;;;;;-142.25;100.00;58004.16;4924668;29;20081;-68
2023/04/17 05:11:33;;;;;;;20.90;19.13;;;;;;;-142.25;100.00;58004.16;4916174;29;20152;-68
2023/04/17 05:13:59;;;;;;;18.23;16.67;;;;;;;-142.25;100.00;58004.16;4918914;29;20441;-66
2023/04/17 05:16:29;;;;;;;17.70;16.03;;;;;;;-142.25;100.00;58004.16;4922273;29;20327;-67
2023/04/17 05:18:56;;;;;;;19.83;18.17;;;;;;;-142.25;100.00;58004.16;4910770;29;20403;-67
2023/04/17 05:21:37;;;;;;;16.67;15.23;;;;;;;-142.25;100.00;58004.16;4921600;29;20306;-66
2023/04/17 05:24:03;;;;;;;19.97;18.37;;;;;;;-142.25;100.00;58004.16;4910593;29;20296;-65
2023/04/17 05:26:28;;;;;;;24.13;22.43;;;;;;;-142.25;100.00;58004.16;4914196;29;20455;-68
2023/04/17 05:28:54;;;;;;;18.37;16.90;;;;;;;-142.25;100.00;58004.16;4921892;29;20051;-68
2023/04/17 05:31:25;;;;;;;19.07;17.30;;;;;;;-142.25;100.00;58004.16;4928285;29;20083;-67
2023/04/17 05:33:50;;;;;;;18.23;16.80;;;;;;;-142.25;100.00;58004.16;4911723;29;20299;-70
2023/04/17 05:36:16;;;;;;;18.23;16.40;;;;;;;-142.25;100.00;58004.16;4914726;29;20304;-68
2023/04/17 05:38:42;;;;;;;17.10;15.60;;;;;;;-142.25;100.00;58004.16;4930398;28;20036;-67
2023/04/17 05:41:09;;;;;;;17.70;16.20;;;;;;;-142.25;100.00;58004.16;4931747;29;20624;-68
2023/04/17 05:43:36;;;;;;;18.67;17.20;;;;;;;-142.25;100.00;58004.16;4913581;29;20418;-68
2023/04/17 05:46:02;;;;;;;15.47;14.13;;;;;;;-142.25;100.00;58004.16;4914226;29;20287;-69
2023/04/17 05:48:28;;;;;;;15.87;14.47;;;;;;;-142.25;100.00;58004.16;4929896;29;20287;-70
2023/04/17 05:50:55;;;;;;;15.33;13.93;;;;;;;-142.25;100.00;58004.16;4913373;29;20056;-69
2023/04/17 05:53:21;;;;;;;22.40;20.73;;;;;;;-142.25;100.00;58004.16;4929433;29;20292;-69
2023/04/17 05:55:50;;;;;;;20.27;18.73;;;;;;;-142.25;100.00;58004.16;4922870;29;20300;-68
2023/04/17 05:58:15;;;;;;;21.73;20.07;;;;;;;-142.25;100.00;58004.16;4912906;29;20299;-69
2023/04/17 06:00:43;;;;;;;17.67;16.27;;;;;;;-142.25;100.00;58004.16;4917149;29;20039;-71
2023/04/17 06:03:12;;;;;;;20.57;18.87;;;;;;;-142.25;100.00;58004.16;4927216;29;20930;-68
2023/04/17 06:05:39;;;;;;;18.50;16.90;;;;;;;-142.25;100.00;58004.16;4911396;29;20285;-70
2023/04/17 06:08:05;;;;;;;17.60;16.13;;;;;;;-142.25;100.00;58004.16;4927329;29;20719;-70
2023/04/17 06:10:32;;;;;;;17.17;15.67;;;;;;;-142.25;100.00;58004.16;4905833;29;20411;-68
2023/04/17 06:13:00;;;;;;;15.27;14.10;;;;;;;-142.25;100.00;58004.16;4914334;28;20376;-69
2023/04/17 06:15:26;;;;;;;17.47;16.10;;;;;;;-142.25;100.00;58004.16;4920901;29;20311;-69
2023/04/17 06:17:52;;;;;;;17.17;15.57;;;;;;;-142.25;100.00;58004.16;4929418;29;20296;-69
2023/04/17 06:20:17;;;;;;;17.53;15.97;;;;;;;-142.25;100.00;58004.16;4926676;29;20303;-70
2023/04/17 06:22:45;;;;;;;18.20;16.70;;;;;;;-142.25;100.00;58004.16;4928793;29;20587;-68
2023/04/17 06:25:11;;;;;;;20.80;19.07;;;;;;;-142.25;100.00;58004.16;4913056;29;20039;-69
2023/04/17 06:27:38;;;;;;;17.60;16.03;;;;;;;-142.25;100.00;58004.16;4928662;29;20462;-69
2023/04/17 06:30:05;;;;;;;18.77;16.97;;;;;;;-142.25;100.00;58004.16;4927135;28;20304;-69
2023/04/17 06:32:40;;;;;;;18.73;17.10;;;;;;;-142.25;100.00;58004.16;4914613;29;20322;-68
2023/04/17 06:35:06;;;;;;;19.40;17.70;;;;;;;-142.25;100.00;58004.16;4912998;29;20299;-68
2023/04/17 06:37:46;;;;;;;20.77;19.03;;;;;;;-142.25;100.00;58004.16;4911014;29;20395;-67
2023/04/17 06:40:12;;;;;;;15.30;13.97;;;;;;;-142.25;100.00;58004.16;4927940;28;20874;-67
2023/04/17 06:42:38;;;;;;;21.70;19.93;;;;;;;-142.25;100.00;58004.16;4921143;29;20047;-68
2023/04/17 06:45:09;;;;;;;18.47;16.87;;;;;;;-142.25;100.00;58004.16;4920673;29;20303;-69
2023/04/17 06:47:35;;;;;;;23.23;21.40;;;;;;;-142.25;100.00;58004.16;4917575;29;20403;-70
2023/04/17 06:50:01;;;;;;;17.40;15.93;;;;;;;-142.25;100.00;58004.16;4918938;29;20307;-68
2023/04/17 06:52:26;;;;;;;16.67;15.27;;;;;;;-142.25;100.00;58004.16;4912680;29;20092;-70
2023/04/17 06:54:55;;;;;;;15.50;14.27;;;;;;;-142.25;100.00;58004.16;4912152;29;20127;-69
2023/04/17 06:57:21;;;;;;;17.57;15.97;;;;;;;-142.25;100.00;58004.16;4912939;29;20107;-68
2023/04/17 06:59:47;;;;;;;15.57;14.37;;;;;;;-142.25;100.00;58004.16;4911968;29;20400;-68
2023/04/17 07:02:13;;;;;;;16.80;15.37;;;;;;;-142.25;100.00;58004.16;4913390;29;20523;-69
2023/04/17 07:04:39;;;;;;;16.77;15.40;;;;;;;-142.25;100.00;58004.16;4912085;29;20044;-68
2023/04/17 07:07:04;;;;;;;20.17;18.47;;;;;;;-142.25;100.00;58004.16;4918043;29;20051;-68
2023/04/17 07:09:30;;;;;;;17.43;16.17;;;;;;;-142.25;100.00;58004.16;4911590;29;20580;-68
2023/04/17 07:11:57;;;;;;;16.90;15.57;;;;;;;-142.25;100.00;58004.16;4912986;29;20047;-67
2023/04/17 07:14:23;;;;;;;19.03;17.57;;;;;;;-142.25;100.00;58004.16;4910275;29;20135;-70
2023/04/17 07:16:49;;;;;;;15.00;13.80;;;;;;;-142.25;100.00;58004.16;4911129;29;20059;-68
2023/04/17 07:19:14;;;;;;;16.43;15.17;;;;;;;-142.25;100.00;58004.16;4911920;29;20071;-69
2023/04/17 07:21:40;;;;;;;16.77;15.50;;;;;;;-142.25;100.00;58004.16;4912101;29;20135;-68
2023/04/17 07:24:06;;;;;;;19.10;17.63;;;;;;;-142.25;100.00;58004.16;4912420;29;20044;-69
2023/04/17 07:26:31;;;;;;;17.63;16.07;;;;;;;-142.25;100.00;58004.16;4911590;29;20040;-69
2023/04/17 07:28:57;;;;;;;18.03;16.53;;;;;;;-142.25;100.00;58004.16;4914638;29;20107;-69
2023/04/17 07:31:23;;;;;;;19.50;17.63;;;;;;;-142.25;100.00;58004.16;4912976;29;20575;-71
2023/04/17 07:33:48;;;;;;;16.50;15.23;;;;;;;-142.25;100.00;58004.16;4910586;29;20051;-69
2023/04/17 07:36:15;;;;;;;16.43;15.10;;;;;;;-142.25;100.00;58004.16;4912039;29;20066;-69
2023/04/17 07:38:41;;;;;;;17.50;16.10;;;;;;;-142.25;100.00;58004.16;4912145;29;20114;-70
2023/04/17 07:41:06;;;;;;;15.17;14.00;;;;;;;-142.25;100.00;58004.16;4909505;29;20052;-70
2023/04/17 07:43:32;;;;;;;15.30;14.07;;;;;;;-142.25;100.00;58004.16;4911840;29;20143;-69
2023/04/17 07:45:57;;;;;;;20.23;18.47;;;;;;;-142.25;100.00;58004.16;4911521;29;20510;-70
2023/04/17 07:48:23;;;;;;;14.97;13.83;;;;;;;-142.25;100.00;58004.16;4912313;29;20048;-68
2023/04/17 07:50:50;;;;;;;15.70;14.47;;;;;;;-142.25;100.00;58004.16;4911782;29;20056;-69
2023/04/17 07:53:17;;;;;;;21.90;20.20;;;;;;;-142.25;100.00;58004.16;4912704;29;20069;-69
2023/04/17 07:55:43;;;;;;;16.33;15.07;;;;;;;-142.25;100.00;58004.16;4910445;29;20047;-68
2023/04/17 07:58:10;;;;;;;17.30;15.97;;;;;;;-142.25;100.00;58004.16;4910645;29;20053;-68
2023/04/17 08:00:40;;;;;;;18.07;16.57;;;;;;;-142.25;100.00;58004.16;4912460;29;20048;-65
2023/04/17 08:03:06;;;;;;;17.37;15.80;;;;;;;-142.25;100.00;58004.16;4912371;29;20044;-62
2023/04/17 08:05:32;;;;;;;14.90;13.57;;;;;;;-142.25;100.00;58004.16;4911895;29;20054;-64
2023/04/17 08:07:59;;;;;;;18.60;16.97;;;;;;;-142.25;100.00;58004.16;4927473;29;20530;-64
2023/04/17 08:10:26;;;;;;;19.57;18.10;;;;;;;-142.25;100.00;58004.16;4912814;29;20048;-64
2023/04/17 08:12:51;;;;;;;18.97;17.50;;;;;;;-142.25;100.00;58004.16;4910148;29;20056;-63
2023/04/17 08:15:17;;;;;;;18.07;16.67;;;;;;;-142.25;100.00;58004.16;4910259;29;20058;-64
2023/04/17 08:17:43;;;;;;;17.43;14.30;;;;;;;-142.25;100.00;58004.16;4925097;29;20615;-65
2023/04/17 08:20:10;;;;;;;18.53;16.97;;;;;;;-142.25;100.00;58004.16;4912611;29;20054;-65
2023/04/17 08:22:44;;;;;;;19.63;18.07;;;;;;;-142.25;100.00;58004.16;4911862;29;20075;-64
2023/04/17 08:25:12;;;;;;;17.23;15.70;;;;;;;-142.25;100.00;58004.16;4910362;29;20052;-67
2023/04/17 08:27:40;;;;;;;16.93;15.67;;;;;;;-142.25;100.00;58004.16;4911927;29;20044;-65
2023/04/17 08:30:07;;;;;;;16.00;14.77;;;;;;;-142.25;100.00;58004.16;4911015;28;20051;-65
2023/04/17 08:32:41;;;;;;;17.10;15.73;;;;;;;-142.25;100.00;58004.16;4910721;29;20044;-64
2023/04/17 08:35:10;;;;;;;17.97;16.33;;;;;;;-142.25;100.00;58004.16;4911403;29;20047;-64
2023/04/17 08:37:36;;;;;;;18.47;16.93;;;;;;;-142.25;100.00;58004.16;4911481;29;20051;-65
2023/04/17 08:40:03;;;;;;;16.20;14.97;;;;;;;-142.25;100.00;58004.16;4910359;29;20044;-65
2023/04/17 08:42:33;;;;;;;16.77;15.33;;;;;;;-142.25;100.00;58004.16;4911042;29;20171;-65
2023/04/17 08:45:02;;;;;;;20.87;19.17;;;;;;;-142.25;100.00;58004.16;4910712;29;20095;-66
2023/04/17 08:47:28;;;;;;;18.93;17.37;;;;;;;-142.25;100.00;58004.16;4909539;29;20083;-66
2023/04/17 08:49:55;;;;;;;17.33;16.10;;;;;;;-142.25;100.00;58004.16;4910606;29;20147;-69
2023/04/17 08:52:21;;;;;;;18.17;16.77;;;;;;;-142.25;100.00;58004.16;4910925;29;20567;-67
2023/04/17 08:54:47;;;;;;;19.07;17.53;;;;;;;-142.25;100.00;58004.16;4912077;29;20048;-66
2023/04/17 08:57:13;;;;;;;15.57;14.30;;;;;;;-142.25;100.00;58004.16;4914327;29;20597;-64
2023/04/17 08:59:41;;;;;;;17.13;15.80;;;;;;;-142.25;100.00;58004.16;4914523;29;20412;-65
2023/04/17 09:02:07;;;;;;;16.60;15.37;;;;;;;-142.25;100.00;58004.16;4914816;29;20058;-65
2023/04/17 09:04:41;;;;;;;18.00;16.40;;;;;;;-142.25;100.00;58004.16;4914882;29;20111;-65
2023/04/17 09:07:09;;;;;;;19.57;17.97;;;;;;;-142.25;100.00;58004.16;4908248;29;20510;-67
2023/04/17 09:09:55;;;;;;;16.37;14.97;;;;;;;-142.25;100.00;58004.16;4915109;29;20500;-67
2023/04/17 09:12:22;;;;;;;23.95;22.13;;;;;;;-142.25;100.00;58004.16;4929571;29;20942;-66
2023/04/17 09:14:48;;;;;;;21.20;19.63;;;;;;;-142.25;100.00;58004.16;4910717;29;20451;-65
2023/04/17 09:17:18;;;;;;;20.40;18.37;;;;;;;-142.25;100.00;58004.16;4914566;29;20044;-66
2023/04/17 09:20:07;;;;;;;20.63;19.00;;;;;;;-142.25;100.00;58004.16;4913266;29;20268;-66
2023/04/17 09:22:35;;;;;;;19.03;17.57;;;;;;;-142.25;100.00;58004.16;4915148;29;20040;-67
2023/04/17 09:25:01;;;;;;;16.50;15.07;;;;;;;-142.25;100.00;58004.16;4914039;29;20412;-67
2023/04/17 09:27:28;;;;;;;18.17;16.87;;;;;;;-142.25;100.00;58004.16;4915173;29;20039;-68
2023/04/17 09:30:38;;;;;;;19.60;17.53;;;;;;;-142.25;100.00;58004.16;4913388;29;20107;-68
2023/04/17 09:33:07;;;;;;;22.57;20.33;;;;;;;-142.25;100.00;58004.16;4912787;29;20051;-66
2023/04/17 09:35:34;;;;;;;22.60;20.93;;;;;;;-142.25;100.00;58004.16;4912317;28;20899;-67
2023/04/17 09:37:59;;;;;;;16.83;15.50;;;;;;;-142.25;100.00;58004.16;4912466;29;20075;-70
2023/04/17 09:40:27;;;;;;;18.10;16.60;;;;;;;-142.25;100.00;58004.16;4912017;29;20472;-68
2023/04/17 09:43:00;;;;;;;17.33;15.80;;;;;;;-142.25;100.00;58004.16;4915176;29;20158;-69
2023/04/17 09:45:34;;;;;;;19.57;18.00;;;;;;;-142.25;100.00;58004.16;4921674;29;20134;-73
2023/04/17 09:48:01;;;;;;;23.97;21.93;;;;;;;-142.25;100.00;58004.16;4914041;28;20054;-70
2023/04/17 09:50:27;;;;;;;15.87;14.70;;;;;;;-142.25;100.00;58004.16;4914197;29;20043;-71
2023/04/17 09:52:54;;;;;;;16.13;14.83;;;;;;;-142.25;100.00;58004.16;4912447;29;20055;-67
2023/04/17 09:55:22;;;;;;;16.93;15.47;;;;;;;-142.25;100.00;58004.16;4911984;29;20039;-69
2023/04/17 09:57:50;;;;;;;16.43;15.20;;;;;;;-142.25;100.00;58004.16;4926138;29;20066;-69
2023/04/17 10:00:18;;;;;;;16.00;14.93;;;;;;;-142.25;100.00;58004.16;4913520;29;20039;-68
2023/04/17 10:02:43;;;;;;;19.67;18.27;;;;;;;-142.25;100.00;58004.16;4913384;29;20091;-68
2023/04/17 10:05:10;;;;;;;14.83;13.70;;;;;;;-142.25;100.00;58004.16;4912639;29;20040;-70
2023/04/17 10:07:37;;;;;;;19.40;17.73;;;;;;;-142.25;100.00;58004.16;4913772;29;20074;-69
2023/04/17 10:10:08;;;;;;;21.63;19.90;;;;;;;-142.25;100.00;58004.16;4910862;29;20539;-69
2023/04/17 10:12:35;;;;;;;15.80;14.77;;;;;;;-142.25;100.00;58004.16;4911617;29;20403;-69
2023/04/17 10:15:03;;;;;;;17.33;16.13;;;;;;;-142.25;100.00;58004.16;4911997;29;20111;-63
2023/04/17 10:17:31;;;;;;;19.70;18.20;;;;;;;-142.25;100.00;58004.16;4911510;29;20056;-64
2023/04/17 10:20:22;;;;;;;17.10;15.83;;;;;;;-142.25;100.00;58004.16;4910964;29;20123;-63
2023/04/17 10:22:53;;;;;;;17.20;15.93;;;;;;;-142.25;100.00;58004.16;4913207;29;20323;-63
2023/04/17 10:25:23;;;;;;;15.40;14.03;;;;;;;-142.25;100.00;58004.16;4913174;29;20035;-63
2023/04/17 10:27:59;;;;;;;16.03;14.90;;;;;;;-142.25;100.00;58004.16;4919832;29;20137;-65
2023/04/17 10:30:52;;;;;;;14.83;13.80;;;;;;;-142.25;100.00;58004.16;4912445;29;20765;-65
2023/04/17 10:33:23;;;;;;;17.07;15.77;;;;;;;-142.25;100.00;58004.16;4911843;29;20567;-61
2023/04/17 10:35:49;;;;;;;15.67;14.63;;;;;;;-142.25;100.00;58004.16;4913894;29;20059;-61
2023/04/17 10:38:17;;;;;;;15.77;14.70;;;;;;;-142.25;100.00;58004.16;4913182;29;20088;-61
2023/04/17 10:40:43;;;;;;;18.40;17.13;;;;;;;-142.25;100.00;58004.16;4913192;29;20048;-59
2023/04/17 10:43:10;;;;;;;17.63;16.47;;;;;;;-142.25;100.00;58004.16;4912085;29;20055;-61
2023/04/17 10:46:01;;;;;;;16.47;15.30;;;;;;;-142.25;100.00;58004.16;4911230;29;20457;-61
2023/04/17 10:48:51;;;;;;;19.43;17.90;;;;;;;-142.25;100.00;58004.16;4913909;29;20506;-61
2023/04/17 10:51:23;;;;;;;19.43;17.83;;;;;;;-142.25;100.00;58004.16;4912742;29;20587;-65
2023/04/17 10:53:59;;;;;;;19.03;17.80;;;;;;;-142.25;100.00;58004.16;4912800;29;20354;-64
2023/04/17 10:56:37;;;;;;;21.57;19.90;;;;;;;-142.25;100.00;58004.16;4913694;29;20120;-63
2023/04/17 10:59:10;;;;;;;16.90;15.37;;;;;;;-142.25;100.00;58004.16;4920041;29;20142;-61